createdAt,value
2022-08-04T00:00:07.908Z,100.00
2022-08-04T00:02:53.453Z,100.00
2022-08-04T00:05:47.888Z,100.00
2022-08-04T00:08:42.238Z,100.00
2022-08-04T00:11:11.993Z,100.00
2022-08-04T00:13:58.161Z,100.00
2022-08-04T00:16:37.871Z,100.00
2022-08-04T00:19:11.057Z,100.00
2022-08-04T00:21:39.589Z,100.00
2022-08-04T00:24:11.344Z,100.00
2022-08-04T00:26:39.041Z,100.00
2022-08-04T00:29:05.796Z,100.00
2022-08-04T00:31:53.655Z,100.00
2022-08-04T00:34:19.371Z,100.00
2022-08-04T00:36:45.944Z,100.00
2022-08-04T00:39:14.082Z,100.00
2022-08-04T00:41:56.694Z,100.00
2022-08-04T00:44:35.532Z,100.00
2022-08-04T00:47:12.284Z,100.00
2022-08-04T00:49:57.364Z,100.00
2022-08-04T00:52:32.985Z,100.00
2022-08-04T00:55:24.395Z,100.00
2022-08-04T00:58:18.918Z,100.00
2022-08-04T01:00:58.404Z,100.00
2022-08-04T01:03:49.653Z,100.00
2022-08-04T01:06:25.314Z,100.00
2022-08-04T01:09:21.712Z,100.00
2022-08-04T01:11:58.689Z,100.00
2022-08-04T01:14:49.843Z,100.00
2022-08-04T01:17:38.265Z,100.00
2022-08-04T01:20:08.551Z,100.00
2022-08-04T01:22:34.856Z,100.00
2022-08-04T01:25:10.376Z,100.00
2022-08-04T01:28:15.905Z,100.00
2022-08-04T01:30:46.120Z,100.00
2022-08-04T01:33:17.904Z,100.00
2022-08-04T01:36:10.451Z,100.00
2022-08-04T01:38:39.816Z,100.00
2022-08-04T01:41:08.655Z,100.00
2022-08-04T01:43:36.279Z,100.00
2022-08-04T01:46:04.937Z,100.00
2022-08-04T01:48:32.032Z,100.00
2022-08-04T01:51:04.376Z,100.00
2022-08-04T01:53:35.041Z,100.00
2022-08-04T01:56:02.896Z,100.00
2022-08-04T01:58:31.593Z,100.00
2022-08-04T02:01:05.082Z,100.00
2022-08-04T02:04:21.273Z,100.00
2022-08-04T02:06:38.630Z,100.00
2022-08-04T02:09:24.541Z,100.00
2022-08-04T02:12:03.953Z,100.00
2022-08-04T02:14:40.970Z,100.00
2022-08-04T02:17:11.555Z,100.00
2022-08-04T02:19:58.798Z,100.00
2022-08-04T02:22:27.245Z,100.00
2022-08-04T02:25:02.699Z,100.00
2022-08-04T02:28:00.335Z,100.00
2022-08-04T02:30:21.121Z,100.00
2022-08-04T02:32:49.131Z,100.00
2022-08-04T02:35:25.223Z,100.00
2022-08-04T02:38:00.393Z,100.00
2022-08-04T02:40:30.026Z,100.00
2022-08-04T02:42:57.608Z,100.00
2022-08-04T02:45:25.553Z,100.00
2022-08-04T02:48:28.719Z,100.00
2022-08-04T02:50:41.404Z,100.00
2022-08-04T02:53:09.884Z,100.00
2022-08-04T02:55:36.609Z,100.00
2022-08-04T02:58:04.401Z,100.00
2022-08-04T03:00:31.198Z,100.00
2022-08-04T03:03:13.603Z,100.00
2022-08-04T03:06:11.515Z,100.00
2022-08-04T03:08:47.053Z,100.00
2022-08-04T03:11:35.288Z,100.00
2022-08-04T03:14:26.397Z,100.00
2022-08-04T03:17:17.079Z,100.00
2022-08-04T03:20:07.924Z,100.00
2022-08-04T03:22:34.225Z,100.00
2022-08-04T03:25:17.870Z,100.00
2022-08-04T03:28:01.427Z,100.00
2022-08-04T03:31:04.969Z,100.00
2022-08-04T03:33:46.501Z,100.00
2022-08-04T03:36:12.858Z,100.00
2022-08-04T03:39:16.575Z,100.00
2022-08-04T03:41:55.118Z,100.00
2022-08-04T03:44:31.144Z,100.00
2022-08-04T03:47:18.738Z,100.00
2022-08-04T03:50:02.920Z,100.00
2022-08-04T03:53:04.962Z,100.00
2022-08-04T03:55:49.315Z,100.00
2022-08-04T03:58:34.176Z,100.00
2022-08-04T04:01:16.768Z,100.00
2022-08-04T04:04:02.022Z,100.00
2022-08-04T04:07:15.070Z,100.00
2022-08-04T04:10:05.994Z,100.00
2022-08-04T04:13:16.185Z,100.00
2022-08-04T04:15:55.739Z,100.00
2022-08-04T04:18:42.921Z,100.00
2022-08-04T04:21:28.440Z,100.00
2022-08-04T04:24:16.640Z,100.00
2022-08-04T04:26:59.054Z,100.00
2022-08-04T04:29:50.381Z,100.00
2022-08-04T04:32:32.585Z,100.00
2022-08-04T04:35:30.156Z,100.00
2022-08-04T04:38:29.228Z,100.00
2022-08-04T04:41:14.524Z,100.00
2022-08-04T04:43:50.888Z,100.00
2022-08-04T04:46:30.781Z,100.00
2022-08-04T04:49:33.533Z,100.00
2022-08-04T04:52:24.514Z,100.00
2022-08-04T04:55:00.603Z,100.00
2022-08-04T04:57:54.715Z,100.00
2022-08-04T05:00:17.515Z,100.00
2022-08-04T05:03:42.837Z,100.00
2022-08-04T05:06:28.306Z,100.00
2022-08-04T05:09:16.779Z,100.00
2022-08-04T05:11:57.427Z,100.00
2022-08-04T05:14:41.192Z,100.00
2022-08-04T05:17:24.841Z,100.00
2022-08-04T05:20:04.445Z,100.00
2022-08-04T05:22:37.680Z,100.00
2022-08-04T05:25:32.356Z,100.00
2022-08-04T05:28:15.433Z,100.00
2022-08-04T05:30:49.658Z,100.00
2022-08-04T05:33:28.781Z,100.00
2022-08-04T05:36:21.706Z,100.00
2022-08-04T05:38:46.346Z,100.00
2022-08-04T05:41:12.977Z,100.00
2022-08-04T05:43:43.276Z,100.00
2022-08-04T05:46:11.066Z,100.00
2022-08-04T05:48:37.684Z,100.00
2022-08-04T05:51:05.449Z,100.00
2022-08-04T05:53:32.475Z,100.00
2022-08-04T05:55:59.972Z,100.00
2022-08-04T05:58:29.752Z,100.00
2022-08-04T06:00:57.213Z,100.00
2022-08-04T06:03:24.023Z,100.00
2022-08-04T06:05:51.651Z,100.00
2022-08-04T06:08:18.127Z,100.00
2022-08-04T06:10:46.219Z,100.00
2022-08-04T06:13:47.930Z,100.00
2022-08-04T06:16:02.283Z,100.00
2022-08-04T06:18:42.180Z,100.00
2022-08-04T06:21:18.963Z,100.00
2022-08-04T06:23:53.675Z,100.00
2022-08-04T06:26:28.764Z,100.00
2022-08-04T06:28:56.366Z,100.00
2022-08-04T06:32:27.708Z,100.00
2022-08-04T06:34:30.180Z,100.00
2022-08-04T06:36:57.376Z,100.00
2022-08-04T06:39:25.162Z,100.00
2022-08-04T06:41:55.313Z,100.00
2022-08-04T06:44:40.596Z,100.00
2022-08-04T06:47:07.370Z,100.00
2022-08-04T06:51:23.476Z,100.00
2022-08-04T06:52:21.791Z,100.00
2022-08-04T06:54:49.050Z,100.00
2022-08-04T06:57:23.055Z,100.00
2022-08-04T06:59:57.257Z,100.00
2022-08-04T07:02:26.775Z,100.00
2022-08-04T07:04:53.370Z,100.00
2022-08-04T07:07:20.258Z,100.00
2022-08-04T07:10:03.527Z,100.00
2022-08-04T07:12:30.248Z,100.00
2022-08-04T07:14:57.440Z,100.00
2022-08-04T07:17:24.335Z,100.00
2022-08-04T07:19:56.244Z,100.00
2022-08-04T07:22:25.800Z,100.00
2022-08-04T07:24:56.463Z,99.89
2022-08-04T07:27:48.235Z,92.00
2022-08-04T07:30:11.020Z,98.61
2022-08-04T07:32:38.037Z,94.87
2022-08-04T07:35:06.453Z,91.82
2022-08-04T07:37:39.270Z,86.05
2022-08-04T07:40:07.551Z,82.37
2022-08-04T07:42:34.137Z,83.52
2022-08-04T07:45:00.706Z,83.61
2022-08-04T07:47:27.548Z,83.36
2022-08-04T07:49:57.548Z,77.13
2022-08-04T07:52:25.798Z,76.22
2022-08-04T07:54:52.942Z,78.81
2022-08-04T07:57:39.736Z,76.49
2022-08-04T08:00:08.239Z,80.30
2022-08-04T08:02:35.622Z,80.15
2022-08-04T08:05:02.551Z,83.59
2022-08-04T08:07:28.981Z,79.38
2022-08-04T08:09:55.398Z,76.96
2022-08-04T08:12:36.468Z,76.96
2022-08-04T08:15:15.838Z,68.93
2022-08-04T08:17:57.710Z,64.28
2022-08-04T08:20:29.581Z,67.77
2022-08-04T08:22:56.480Z,69.77
2022-08-04T08:25:22.921Z,66.97
2022-08-04T08:27:56.395Z,67.57
2022-08-04T08:30:23.869Z,59.94
2022-08-04T08:32:50.667Z,57.25
2022-08-04T08:35:17.598Z,55.63
2022-08-04T08:37:56.259Z,56.17
2022-08-04T08:40:41.079Z,56.42
2022-08-04T08:44:06.226Z,54.07
2022-08-04T08:46:48.964Z,52.16
2022-08-04T08:50:00.416Z,52.47
2022-08-04T08:53:01.680Z,51.72
2022-08-04T08:56:02.734Z,51.89
2022-08-04T08:58:35.688Z,52.79
2022-08-04T09:01:13.337Z,50.65
2022-08-04T09:03:58.610Z,47.24
2022-08-04T09:06:47.964Z,48.14
2022-08-04T09:09:30.956Z,46.69
2022-08-04T09:12:06.063Z,46.69
2022-08-04T09:14:41.983Z,46.66
2022-08-04T09:17:18.544Z,46.10
2022-08-04T09:19:52.321Z,44.67
2022-08-04T09:22:24.345Z,44.25
2022-08-04T09:25:13.819Z,44.44
2022-08-04T09:27:46.211Z,45.21
2022-08-04T09:30:14.239Z,45.31
2022-08-04T09:32:41.372Z,43.92
2022-08-04T09:35:19.977Z,43.29
2022-08-04T09:38:12.489Z,42.81
2022-08-04T09:41:19.764Z,42.58
2022-08-04T09:44:52.325Z,41.61
2022-08-04T09:47:24.806Z,41.19
2022-08-04T09:50:22.022Z,41.22
2022-08-04T09:53:07.239Z,42.13
2022-08-04T09:55:53.610Z,40.85
2022-08-04T09:58:39.312Z,39.02
2022-08-04T10:01:21.058Z,39.40
2022-08-04T10:03:51.600Z,40.15
2022-08-04T10:06:42.933Z,38.67
2022-08-04T10:09:12.239Z,36.96
2022-08-04T10:11:56.210Z,37.89
2022-08-04T10:14:49.040Z,38.73
2022-08-04T10:17:55.020Z,38.55
2022-08-04T10:20:45.587Z,38.00
2022-08-04T10:23:56.299Z,38.04
2022-08-04T10:26:32.075Z,36.62
2022-08-04T10:29:03.571Z,36.60
2022-08-04T10:31:36.530Z,35.90
2022-08-04T10:34:11.837Z,36.38
2022-08-04T10:36:47.123Z,36.48
2022-08-04T10:39:42.631Z,36.75
2022-08-04T10:42:25.398Z,35.65
2022-08-04T10:45:23.762Z,35.74
2022-08-04T10:48:10.732Z,36.14
2022-08-04T10:50:40.496Z,36.70
2022-08-04T10:53:13.928Z,36.11
2022-08-04T10:56:07.111Z,34.15
2022-08-04T10:58:47.414Z,35.10
2022-08-04T11:02:01.086Z,35.21
2022-08-04T11:04:27.553Z,35.16
2022-08-04T11:06:55.464Z,34.91
2022-08-04T11:09:22.614Z,36.26
2022-08-04T11:12:01.116Z,36.61
2022-08-04T11:14:33.966Z,39.00
2022-08-04T11:17:07.440Z,38.13
2022-08-04T11:20:32.088Z,38.11
2022-08-04T11:23:20.426Z,38.32
2022-08-04T11:25:56.425Z,38.46
2022-08-04T11:28:39.478Z,38.14
2022-08-04T11:31:11.543Z,38.17
2022-08-04T11:33:48.094Z,35.36
2022-08-04T11:36:35.868Z,35.98
2022-08-04T11:39:11.251Z,36.56
2022-08-04T11:41:42.425Z,36.10
2022-08-04T11:44:12.898Z,35.75
2022-08-04T11:46:48.344Z,36.27
2022-08-04T11:49:57.041Z,37.33
2022-08-04T11:52:20.096Z,38.62
2022-08-04T11:54:52.473Z,39.32
2022-08-04T11:57:21.162Z,40.07
2022-08-04T11:59:49.013Z,37.89
2022-08-04T12:02:30.202Z,37.21
2022-08-04T12:04:59.507Z,37.23
2022-08-04T12:07:41.897Z,38.18
2022-08-04T12:10:41.097Z,38.33
2022-08-04T12:13:40.747Z,40.33
2022-08-04T12:16:18.560Z,39.45
2022-08-04T12:18:56.446Z,40.14
2022-08-04T12:21:33.874Z,39.43
2022-08-04T12:24:15.427Z,39.75
2022-08-04T12:26:47.139Z,39.77
2022-08-04T12:29:15.155Z,40.41
2022-08-04T12:31:51.808Z,41.27
2022-08-04T12:34:34.528Z,42.04
2022-08-04T12:37:10.226Z,42.27
2022-08-04T12:40:27.350Z,42.86
2022-08-04T12:42:33.128Z,42.42
2022-08-04T12:45:05.894Z,42.58
2022-08-04T12:47:32.450Z,43.22
2022-08-04T12:50:03.874Z,43.82
2022-08-04T12:53:01.136Z,45.51
2022-08-04T12:55:29.985Z,47.39
2022-08-04T12:57:56.658Z,46.91
2022-08-04T13:00:29.785Z,48.22
2022-08-04T13:03:09.802Z,48.11
2022-08-04T13:05:39.388Z,47.84
2022-08-04T13:08:06.436Z,48.94
2022-08-04T13:10:37.644Z,49.17
2022-08-04T13:13:04.424Z,49.75
2022-08-04T13:15:33.467Z,48.78
2022-08-04T13:18:15.534Z,50.29
2022-08-04T13:20:43.656Z,50.93
2022-08-04T13:23:12.327Z,52.31
2022-08-04T13:26:44.616Z,51.68
2022-08-04T13:28:32.225Z,51.14
2022-08-04T13:31:05.164Z,50.71
2022-08-04T13:33:38.372Z,52.26
2022-08-04T13:36:07.762Z,51.03
2022-08-04T13:38:36.709Z,47.91
2022-08-04T13:41:05.100Z,46.15
2022-08-04T13:44:18.252Z,46.55
2022-08-04T13:46:50.869Z,48.99
2022-08-04T13:49:48.527Z,49.11
2022-08-04T13:52:10.681Z,52.61
2022-08-04T13:54:42.587Z,52.83
2022-08-04T13:57:13.514Z,53.51
2022-08-04T13:59:44.503Z,54.54
2022-08-04T14:02:26.530Z,54.19
2022-08-04T14:04:57.174Z,56.40
2022-08-04T14:07:25.616Z,57.17
2022-08-04T14:10:02.516Z,58.87
2022-08-04T14:12:38.833Z,59.38
2022-08-04T14:15:54.720Z,59.35
2022-08-04T14:18:34.723Z,58.89
2022-08-04T14:21:10.768Z,60.40
2022-08-04T14:23:46.953Z,61.59
2022-08-04T14:26:18.922Z,60.74
2022-08-04T14:29:28.723Z,60.62
2022-08-04T14:31:32.388Z,58.39
2022-08-04T14:34:03.894Z,57.66
2022-08-04T14:37:04.615Z,60.13
2022-08-04T14:40:19.400Z,60.37
2022-08-04T14:42:42.003Z,59.15
2022-08-04T14:45:08.980Z,57.86
2022-08-04T14:47:52.270Z,55.38
2022-08-04T14:50:20.033Z,56.86
2022-08-04T14:52:46.468Z,58.07
2022-08-04T14:55:23.879Z,55.39
2022-08-04T14:58:34.215Z,56.12
2022-08-04T15:00:37.873Z,55.19
2022-08-04T15:03:08.491Z,55.83
2022-08-04T15:06:01.818Z,57.03
2022-08-04T15:08:31.170Z,55.79
2022-08-04T15:11:02.722Z,57.55
2022-08-04T15:13:32.771Z,60.13
2022-08-04T15:16:06.361Z,60.79
2022-08-04T15:18:35.841Z,61.93
2022-08-04T15:21:02.826Z,62.31
2022-08-04T15:23:38.954Z,62.99
2022-08-04T15:26:09.116Z,64.94
2022-08-04T15:28:37.153Z,66.05
2022-08-04T15:31:04.709Z,67.91
2022-08-04T15:33:39.770Z,68.02
2022-08-04T15:36:13.217Z,66.82
2022-08-04T15:38:50.363Z,68.54
2022-08-04T15:41:35.549Z,67.83
2022-08-04T15:44:28.795Z,68.94
2022-08-04T15:47:04.309Z,66.91
2022-08-04T15:49:30.845Z,71.13
2022-08-04T15:52:01.736Z,71.00
2022-08-04T15:54:32.779Z,73.45
2022-08-04T15:57:02.052Z,76.03
2022-08-04T16:00:09.950Z,79.21
2022-08-04T16:02:43.516Z,84.51
2022-08-04T16:05:17.254Z,84.48
2022-08-04T16:07:59.822Z,77.71
2022-08-04T16:10:35.137Z,76.68
2022-08-04T16:13:14.520Z,75.88
2022-08-04T16:15:55.268Z,73.19
2022-08-04T16:18:30.517Z,68.04
2022-08-04T16:20:59.439Z,70.53
2022-08-04T16:23:54.132Z,69.99
2022-08-04T16:26:36.714Z,69.20
2022-08-04T16:29:40.259Z,67.57
2022-08-04T16:32:12.925Z,68.66
2022-08-04T16:35:05.215Z,69.32
2022-08-04T16:37:38.776Z,69.12
2022-08-04T16:40:39.197Z,71.58
2022-08-04T16:43:16.923Z,71.35
2022-08-04T16:45:58.633Z,73.71
2022-08-04T16:48:27.690Z,73.11
2022-08-04T16:51:07.922Z,68.85
2022-08-04T16:54:02.962Z,70.60
2022-08-04T16:56:32.856Z,67.73
2022-08-04T16:59:05.848Z,68.88
2022-08-04T17:01:34.388Z,70.22
2022-08-04T17:04:05.062Z,70.25
2022-08-04T17:06:35.929Z,72.87
2022-08-04T17:09:13.440Z,70.98
2022-08-04T17:11:41.004Z,70.17
2022-08-04T17:14:08.003Z,71.29
2022-08-04T17:16:39.950Z,69.36
2022-08-04T17:19:19.792Z,71.18
2022-08-04T17:21:47.740Z,69.44
2022-08-04T17:24:17.767Z,66.66
2022-08-04T17:26:53.756Z,67.95
2022-08-04T17:29:22.424Z,69.44
2022-08-04T17:31:48.940Z,69.97
2022-08-04T17:34:21.178Z,68.98
2022-08-04T17:36:48.265Z,66.98
2022-08-04T17:39:17.689Z,68.81
2022-08-04T17:41:49.020Z,66.83
2022-08-04T17:44:15.753Z,67.68
2022-08-04T17:46:48.240Z,68.24
2022-08-04T17:49:16.811Z,69.62
2022-08-04T17:54:39.418Z,69.95
2022-08-04T17:57:20.042Z,72.38
2022-08-04T17:59:57.549Z,73.12
2022-08-04T18:02:31.779Z,74.92
2022-08-04T18:05:07.784Z,76.74
2022-08-04T18:08:41.355Z,78.25
2022-08-04T18:10:55.844Z,81.29
2022-08-04T18:13:27.690Z,80.78
2022-08-04T18:16:02.455Z,80.63
2022-08-04T18:18:29.542Z,81.28
2022-08-04T18:20:56.203Z,80.97
2022-08-04T18:23:31.879Z,81.52
2022-08-04T18:28:46.200Z,83.84
2022-08-04T18:31:13.118Z,85.75
2022-08-04T18:33:43.068Z,86.73
2022-08-04T18:36:34.146Z,88.01
2022-08-04T18:39:12.133Z,87.75
2022-08-04T18:42:03.682Z,89.23
2022-08-04T18:44:31.855Z,91.40
2022-08-04T18:47:22.512Z,92.40
2022-08-04T18:50:59.844Z,93.74
2022-08-04T18:52:32.386Z,95.51
2022-08-04T18:55:01.956Z,96.11
2022-08-04T18:57:58.768Z,95.33
2022-08-04T19:00:16.370Z,94.15
2022-08-04T19:02:46.386Z,93.68
2022-08-04T19:05:17.043Z,93.45
2022-08-04T19:08:11.206Z,94.42
2022-08-04T19:10:31.230Z,95.10
2022-08-04T19:12:58.749Z,96.04
2022-08-04T19:15:34.002Z,95.36
2022-08-04T19:18:01.728Z,96.01
2022-08-04T19:20:29.606Z,98.80
2022-08-04T19:24:27.076Z,98.25
2022-08-04T19:26:01.656Z,99.48
2022-08-04T19:28:31.664Z,100.00
2022-08-04T19:31:00.598Z,100.00
2022-08-04T19:33:30.446Z,100.00
2022-08-04T19:36:13.746Z,100.00
2022-08-04T19:38:43.956Z,100.00
2022-08-04T19:41:14.262Z,100.00
2022-08-04T19:43:43.858Z,100.00
2022-08-04T19:46:10.753Z,100.00
2022-08-04T19:48:39.117Z,100.00
2022-08-04T19:51:05.519Z,100.00
2022-08-04T19:53:37.306Z,100.00
2022-08-04T19:56:04.999Z,100.00
2022-08-04T19:58:31.451Z,100.00
2022-08-04T20:00:57.842Z,100.00
2022-08-04T20:04:09.594Z,100.00
2022-08-04T20:06:10.742Z,100.00
2022-08-04T20:08:37.164Z,100.00
2022-08-04T20:11:03.721Z,100.00
2022-08-04T20:13:36.959Z,100.00
2022-08-04T20:16:04.501Z,100.00
2022-08-04T20:18:35.034Z,100.00
2022-08-04T20:21:03.411Z,100.00
2022-08-04T20:23:48.739Z,100.00
2022-08-04T20:26:16.512Z,100.00
2022-08-04T20:28:43.005Z,100.00
2022-08-04T20:31:18.459Z,100.00
2022-08-04T20:33:49.173Z,100.00
2022-08-04T20:36:20.099Z,100.00
2022-08-04T20:38:51.664Z,100.00
2022-08-04T20:41:19.089Z,100.00
2022-08-04T20:43:46.660Z,100.00
2022-08-04T20:46:25.581Z,100.00
2022-08-04T20:48:56.830Z,100.00
2022-08-04T20:51:25.908Z,100.00
2022-08-04T20:54:00.258Z,100.00
2022-08-04T20:56:31.250Z,100.00
2022-08-04T20:58:59.470Z,100.00
2022-08-04T21:01:29.631Z,100.00
2022-08-04T21:04:27.673Z,100.00
2022-08-04T21:06:55.043Z,100.00
2022-08-04T21:09:37.280Z,100.00
2022-08-04T21:12:08.653Z,100.00
2022-08-04T21:14:35.082Z,100.00
2022-08-04T21:17:02.943Z,100.00
2022-08-04T21:19:31.517Z,100.00
2022-08-04T21:21:58.109Z,100.00
2022-08-04T21:24:26.321Z,100.00
2022-08-04T21:26:56.686Z,100.00
2022-08-04T21:29:24.464Z,100.00
2022-08-04T21:32:07.755Z,100.00
2022-08-04T21:34:39.494Z,100.00
2022-08-04T21:37:07.039Z,100.00
2022-08-04T21:39:50.514Z,100.00
2022-08-04T21:42:28.920Z,100.00
2022-08-04T21:44:57.182Z,100.00
2022-08-04T21:47:24.030Z,100.00
2022-08-04T21:49:56.349Z,100.00
2022-08-04T21:52:23.605Z,100.00
2022-08-04T21:54:54.654Z,100.00
2022-08-04T21:57:24.879Z,100.00
2022-08-04T21:59:52.184Z,100.00
2022-08-04T22:02:18.701Z,100.00
2022-08-04T22:04:45.203Z,100.00
2022-08-04T22:07:12.005Z,100.00
2022-08-04T22:09:41.553Z,100.00
2022-08-04T22:12:12.500Z,100.00
2022-08-04T22:14:39.332Z,100.00
2022-08-04T22:17:05.762Z,100.00
2022-08-04T22:19:40.363Z,100.00
2022-08-04T22:22:25.054Z,100.00
2022-08-04T22:24:53.680Z,100.00
2022-08-04T22:27:38.618Z,100.00
2022-08-04T22:30:09.392Z,100.00
2022-08-04T22:32:43.478Z,100.00
2022-08-04T22:35:36.419Z,100.00
2022-08-04T22:38:06.200Z,100.00
2022-08-04T22:40:35.799Z,100.00
2022-08-04T22:43:03.283Z,100.00
2022-08-04T22:45:44.747Z,100.00
2022-08-04T22:48:11.385Z,100.00
2022-08-04T22:50:37.761Z,100.00
2022-08-04T22:53:04.183Z,100.00
2022-08-04T22:56:06.961Z,100.00
2022-08-04T22:58:17.873Z,100.00
2022-08-04T23:00:44.465Z,100.00
2022-08-04T23:03:37.177Z,100.00
2022-08-04T23:06:07.008Z,100.00
2022-08-04T23:08:37.950Z,100.00
2022-08-04T23:11:07.725Z,100.00
2022-08-04T23:13:34.117Z,100.00
2022-08-04T23:16:04.602Z,100.00
2022-08-04T23:18:36.114Z,100.00
2022-08-04T23:21:07.614Z,100.00
2022-08-04T23:23:34.648Z,100.00
2022-08-04T23:26:07.283Z,100.00
2022-08-04T23:28:35.131Z,100.00
2022-08-04T23:31:02.956Z,100.00
2022-08-04T23:33:50.652Z,100.00
2022-08-04T23:36:15.830Z,100.00
2022-08-04T23:38:42.339Z,100.00
2022-08-04T23:41:17.236Z,100.00
2022-08-04T23:43:54.973Z,100.00
2022-08-04T23:46:22.072Z,100.00
2022-08-04T23:48:48.792Z,100.00
2022-08-04T23:51:15.724Z,100.00
2022-08-04T23:54:01.621Z,100.00
2022-08-04T23:56:29.998Z,100.00
2022-08-04T23:58:56.424Z,100.00
